Time;durP1;ratioP1;P1;durP2;ratioP2;P2;SDS_P1;SDS_P2;PMS_P1;PMS_P2;Temp;Humidity;BMP_temperature;BMP_pressure;BME280_temperature;BME280_humidity;BME280_pressure;Samples;Min_cycle;Max_cycle;Signal;HPM_P1;HPM_P2
2022/08/01 00:02:16;;;;;;;0.00;0.00;;;21.60;99.90;;;;;;5071575;28;20052;-76
2022/08/01 00:04:42;;;;;;;0.00;0.00;;;21.60;99.90;;;;;;5071503;28;20121;-75
2022/08/01 00:07:11;;;;;;;0.00;0.00;;;21.50;99.90;;;;;;5071438;28;20052;-75
2022/08/01 00:09:37;;;;;;;0.00;0.00;;;21.50;99.90;;;;;;5072896;28;20017;-75
2022/08/01 00:12:04;;;;;;;0.00;0.00;;;21.50;98.70;;;;;;5080598;28;20005;-75
2022/08/01 00:14:30;;;;;;;0.00;0.00;;;21.60;97.90;;;;;;5090328;28;20025;-75
2022/08/01 00:17:02;;;;;;;0.00;0.00;;;21.70;92.10;;;;;;5089105;28;20032;-76
2022/08/01 00:19:28;;;;;;;0.00;0.00;;;21.80;91.50;;;;;;5058107;28;20029;-75
2022/08/01 00:21:54;;;;;;;0.00;0.00;;;21.90;86.40;;;;;;5067360;28;20492;-75
2022/08/01 00:24:20;;;;;;;0.00;0.00;;;21.90;87.00;;;;;;5078693;28;20056;-75
2022/08/01 00:26:46;;;;;;;0.22;0.22;;;21.80;88.60;;;;;;5087165;28;20038;-76
2022/08/01 00:29:12;;;;;;;0.00;0.00;;;21.90;87.40;;;;;;5081358;28;20040;-76
2022/08/01 00:31:38;;;;;;;6.10;5.57;;;22.00;85.00;;;;;;5074527;28;20024;-76
2022/08/01 00:34:04;;;;;;;0.45;0.13;;;22.30;78.60;;;;;;5093016;28;20077;-76
2022/08/01 00:36:30;;;;;;;0.00;0.00;;;22.60;77.00;;;;;;5093562;28;20028;-75
2022/08/01 00:38:56;;;;;;;12.27;1.00;;;22.70;78.40;;;;;;5092313;28;20031;-75
2022/08/01 00:41:32;;;;;;;0.00;0.00;;;23.00;78.70;;;;;;5094168;28;20025;-76
2022/08/01 00:43:58;;;;;;;0.00;0.00;;;22.80;79.40;;;;;;5074495;28;20574;-75
2022/08/01 00:46:24;;;;;;;0.00;0.00;;;22.70;79.80;;;;;;5093958;28;20017;-75
2022/08/01 00:48:50;;;;;;;0.00;0.00;;;22.60;80.80;;;;;;5074386;28;20024;-75
2022/08/01 00:51:17;;;;;;;0.00;0.00;;;22.70;83.70;;;;;;5094178;28;20024;-75
2022/08/01 00:53:43;;;;;;;0.00;0.00;;;22.50;83.60;;;;;;5094613;28;20449;-75
2022/08/01 00:56:09;;;;;;;0.00;0.00;;;22.60;84.70;;;;;;5094367;28;20035;-75
2022/08/01 00:58:36;;;;;;;0.00;0.00;;;22.60;84.70;;;;;;5039575;28;1563553;-75
2022/08/01 01:01:03;;;;;;;0.00;0.00;;;22.60;86.40;;;;;;5081724;28;20032;-74
2022/08/01 01:03:29;;;;;;;0.00;0.00;;;22.70;85.40;;;;;;5104095;28;20016;-74
2022/08/01 01:06:30;;;;;;;0.00;0.00;;;22.90;82.40;;;;;;5100508;28;20139;-74
2022/08/01 01:09:18;;;;;;;0.00;0.00;;;23.00;79.50;;;;;;5083366;28;20102;-75
2022/08/01 01:11:59;;;;;;;0.00;0.00;;;23.00;77.60;;;;;;5095024;28;20103;-75
2022/08/01 01:14:38;;;;;;;0.00;0.00;;;23.30;80.10;;;;;;5092223;28;20056;-75
2022/08/01 01:17:07;;;;;;;0.13;0.10;;;23.50;79.30;;;;;;5088208;28;20039;-75
2022/08/01 01:19:39;;;;;;;1.10;0.63;;;23.90;76.80;;;;;;5095426;28;20070;-76
2022/08/01 01:22:14;;;;;;;0.00;0.00;;;24.20;73.80;;;;;;5094989;28;20133;-77
2022/08/01 01:24:58;;;;;;;0.00;0.00;;;24.40;68.10;;;;;;5098466;28;20031;-75
2022/08/01 01:27:45;;;;;;;0.00;0.00;;;24.60;68.30;;;;;;5091406;28;20019;-75
2022/08/01 01:30:11;;;;;;;0.00;0.00;;;24.80;66.30;;;;;;5076090;28;20054;-75
2022/08/01 01:32:48;;;;;;;0.00;0.00;;;24.80;67.20;;;;;;5092699;28;20052;-76
2022/08/01 01:35:23;;;;;;;0.00;0.00;;;25.00;66.50;;;;;;5092746;28;20102;-75
2022/08/01 01:37:53;;;;;;;0.00;0.00;;;25.10;66.40;;;;;;5094723;28;20051;-76
2022/08/01 01:40:21;;;;;;;0.00;0.00;;;25.00;64.90;;;;;;5094672;28;20480;-75
2022/08/01 01:42:49;;;;;;;0.00;0.00;;;25.00;63.50;;;;;;5095272;28;20028;-75
2022/08/01 01:45:16;;;;;;;0.00;0.00;;;25.10;64.80;;;;;;5077164;28;20110;-76
2022/08/01 01:47:43;;;;;;;0.00;0.00;;;25.10;64.90;;;;;;5073901;28;20095;-77
2022/08/01 01:50:12;;;;;;;0.00;0.00;;;25.10;63.50;;;;;;5090388;28;20048;-76
2022/08/01 01:52:42;;;;;;;0.00;0.00;;;25.30;63.90;;;;;;5090101;28;20131;-76
2022/08/01 01:55:10;;;;;;;0.00;0.00;;;25.40;62.90;;;;;;5066099;28;20128;-77
2022/08/01 01:57:40;;;;;;;0.00;0.00;;;25.30;63.00;;;;;;5091178;28;20073;-76
2022/08/01 02:00:08;;;;;;;0.00;0.00;;;25.40;62.50;;;;;;5074548;28;20050;-76
2022/08/01 02:02:36;;;;;;;0.00;0.00;;;25.60;61.70;;;;;;5076010;28;20024;-76
2022/08/01 02:05:04;;;;;;;0.28;0.28;;;25.80;60.70;;;;;;5101639;28;20130;-77
2022/08/01 02:07:30;;;;;;;0.00;0.00;;;26.10;59.00;;;;;;5096749;28;20020;-75
2022/08/01 02:09:58;;;;;;;0.00;0.00;;;26.40;58.50;;;;;;5094349;28;20036;-77
2022/08/01 02:12:24;;;;;;;0.00;0.00;;;27.10;56.90;;;;;;5093611;28;20031;-79
2022/08/01 02:14:54;;;;;;;0.00;0.00;;;28.00;54.80;;;;;;5080381;28;20435;-80
2022/08/01 02:17:22;;;;;;;0.00;0.00;;;28.90;52.70;;;;;;5072213;28;20032;-79
2022/08/01 02:19:48;;;;;;;0.00;0.00;;;29.90;50.70;;;;;;5083066;28;20036;-79
2022/08/01 02:22:22;;;;;;;0.63;0.63;;;30.70;49.00;;;;;;5077050;28;20035;-77
2022/08/01 02:25:02;;;;;;;0.00;0.00;;;30.80;47.80;;;;;;5069504;28;20107;-77
2022/08/01 02:27:39;;;;;;;0.40;0.40;;;30.10;46.80;;;;;;5085429;28;20051;-77
2022/08/01 02:30:08;;;;;;;0.43;0.43;;;29.20;47.60;;;;;;5083077;28;20028;-78
2022/08/01 02:33:19;;;;;;;0.00;0.00;;;29.00;48.60;;;;;;5090433;28;20024;-78
2022/08/01 02:35:49;;;;;;;2.35;2.17;;;29.20;48.50;;;;;;5075180;28;20036;-78
2022/08/01 02:38:18;;;;;;;0.00;0.00;;;29.40;48.50;;;;;;5076519;28;20027;-78
2022/08/01 02:40:47;;;;;;;1.27;1.17;;;29.40;47.70;;;;;;5072284;28;20056;-78
2022/08/01 02:43:18;;;;;;;0.00;0.00;;;29.20;47.90;;;;;;5067354;28;20027;-77
2022/08/01 02:45:51;;;;;;;0.10;0.10;;;29.30;46.80;;;;;;5082020;28;20046;-77
2022/08/01 02:48:18;;;;;;;0.00;0.00;;;29.50;45.90;;;;;;5082151;28;20021;-77
2022/08/01 02:50:47;;;;;;;0.30;0.30;;;29.60;45.90;;;;;;5067130;28;20077;-78
2022/08/01 02:53:16;;;;;;;0.35;0.10;;;29.40;46.40;;;;;;5082697;28;20081;-78
2022/08/01 02:55:47;;;;;;;0.00;0.00;;;29.30;46.60;;;;;;5076637;28;20100;-78
2022/08/01 02:58:16;;;;;;;0.00;0.00;;;29.10;46.90;;;;;;5078196;28;20095;-79
2022/08/01 03:00:44;;;;;;;0.00;0.00;;;29.30;46.70;;;;;;5064606;28;20067;-80
2022/08/01 03:03:12;;;;;;;0.10;0.10;;;29.90;46.00;;;;;;5070212;28;20024;-81
2022/08/01 03:05:42;;;;;;;0.00;0.00;;;30.40;45.00;;;;;;5080245;28;20152;-81
2022/08/01 03:08:09;;;;;;;0.00;0.00;;;31.00;44.80;;;;;;5085726;28;20029;-80
2022/08/01 03:10:38;;;;;;;0.00;0.00;;;31.70;43.80;;;;;;5069388;28;20526;-81
2022/08/01 03:13:08;;;;;;;2.22;2.13;;;31.70;42.90;;;;;;5083033;28;20032;-81
2022/08/01 03:15:38;;;;;;;0.13;0.13;;;32.30;42.60;;;;;;5063532;28;20114;-79
2022/08/01 03:18:08;;;;;;;0.00;0.00;;;31.70;42.80;;;;;;5088628;28;20063;-82
2022/08/01 03:20:34;;;;;;;0.00;0.00;;;31.40;42.10;;;;;;5081545;28;20031;-81
2022/08/01 03:23:05;;;;;;;0.00;0.00;;;30.60;44.00;;;;;;5061582;28;20111;-81
2022/08/01 03:25:34;;;;;;;0.17;0.17;;;31.50;42.70;;;;;;5080782;28;20129;-80
2022/08/01 03:28:03;;;;;;;0.00;0.00;;;31.90;41.60;;;;;;5082883;28;20069;-79
2022/08/01 03:30:31;;;;;;;0.00;0.00;;;32.40;40.30;;;;;;5082134;28;20036;-77
2022/08/01 03:32:57;;;;;;;0.00;0.00;;;33.00;39.50;;;;;;5085459;28;20036;-81
2022/08/01 03:35:29;;;;;;;0.00;0.00;;;33.10;38.80;;;;;;5051018;28;20039;-78
2022/08/01 03:37:55;;;;;;;0.00;0.00;;;33.70;38.50;;;;;;5070889;28;20843;-78
2022/08/01 03:40:52;;;;;;;0.10;0.10;;;33.70;38.40;;;;;;5049155;28;20040;-77
2022/08/01 03:43:41;;;;;;;0.32;0.32;;;33.10;38.50;;;;;;5043151;28;20032;-77
2022/08/01 03:46:13;;;;;;;0.00;0.00;;;30.80;41.60;;;;;;5063512;28;20471;-79
2022/08/01 03:48:43;;;;;;;0.00;0.00;;;30.70;42.60;;;;;;5050422;28;20477;-80
2022/08/01 03:51:12;;;;;;;0.00;0.00;;;30.30;42.60;;;;;;5062411;28;20035;-77
2022/08/01 03:53:41;;;;;;;0.98;0.47;;;29.80;43.70;;;;;;5076492;28;20027;-85
2022/08/01 03:56:08;;;;;;;0.00;0.00;;;28.90;45.80;;;;;;5082507;28;20043;-86
2022/08/01 03:58:36;;;;;;;0.22;0.22;;;28.60;46.40;;;;;;5071175;28;20469;-84
2022/08/01 04:01:03;;;;;;;0.10;0.10;;;28.70;45.90;;;;;;5083565;28;20043;-84
2022/08/01 04:03:30;;;;;;;0.00;0.00;;;28.90;45.30;;;;;;5065395;28;20035;-84
2022/08/01 04:05:56;;;;;;;0.00;0.00;;;28.70;45.30;;;;;;5079493;28;20024;-86
2022/08/01 04:08:22;;;;;;;1.30;1.30;;;28.80;45.80;;;;;;5079467;28;20066;-84
2022/08/01 04:10:48;;;;;;;0.00;0.00;;;28.90;45.70;;;;;;5074081;28;20085;-83
2022/08/01 04:13:14;;;;;;;0.00;0.00;;;28.60;46.30;;;;;;5087607;28;20070;-85
2022/08/01 04:15:40;;;;;;;0.82;0.52;;;28.60;46.70;;;;;;5092989;28;20028;-83
2022/08/01 04:18:06;;;;;;;0.20;0.20;;;28.00;47.70;;;;;;5087958;28;20024;-83
2022/08/01 04:20:32;;;;;;;1.42;1.35;;;27.70;48.10;;;;;;5060604;28;20032;-82
2022/08/01 04:22:58;;;;;;;0.00;0.00;;;27.40;48.90;;;;;;5065161;28;20092;-83
2022/08/01 04:25:34;;;;;;;0.00;0.00;;;27.70;48.60;;;;;;5065958;28;20028;-79
2022/08/01 04:28:03;;;;;;;5.40;3.00;;;27.60;50.00;;;;;;5081952;28;20032;-79
2022/08/01 04:30:34;;;;;;;1.35;0.75;;;28.00;49.40;;;;;;5063605;28;20174;-81
2022/08/01 04:33:02;;;;;;;0.00;0.00;;;28.30;48.80;;;;;;5076778;28;20039;-81
2022/08/01 04:35:29;;;;;;;0.00;0.00;;;28.40;49.60;;;;;;5082856;28;20016;-81
2022/08/01 04:37:58;;;;;;;0.28;0.28;;;28.10;49.80;;;;;;5077631;28;20031;-79
2022/08/01 04:40:26;;;;;;;40.25;5.13;;;28.30;49.80;;;;;;5097899;28;20076;-81
2022/08/01 04:42:58;;;;;;;0.00;0.00;;;28.50;49.70;;;;;;5105136;28;20068;-83
2022/08/01 04:45:25;;;;;;;0.93;0.68;;;28.60;49.00;;;;;;5099475;28;20024;-82
2022/08/01 04:47:52;;;;;;;0.00;0.00;;;28.30;50.50;;;;;;5082542;28;20025;-85
2022/08/01 04:50:21;;;;;;;0.20;0.20;;;27.80;51.70;;;;;;5082013;28;20111;-86
2022/08/01 04:52:47;;;;;;;1.20;1.15;;;28.00;50.90;;;;;;5072510;28;21751;-87
2022/08/01 04:55:13;;;;;;;5.28;4.80;;;27.70;52.20;;;;;;5081730;28;20024;-87
2022/08/01 04:57:42;;;;;;;0.10;0.10;;;27.30;53.70;;;;;;5094369;28;20020;-84
2022/08/01 05:00:10;;;;;;;0.00;0.00;;;27.40;52.50;;;;;;5105034;28;20040;-83
2022/08/01 05:02:36;;;;;;;0.00;0.00;;;27.70;52.50;;;;;;5093535;28;20013;-82
2022/08/01 05:05:30;;;;;;;5.78;4.75;;;27.60;53.60;;;;;;5092882;28;20044;-82
2022/08/01 05:07:56;;;;;;;0.00;0.00;;;27.80;53.70;;;;;;5080215;28;20087;-83
2022/08/01 05:10:22;;;;;;;0.10;0.10;;;28.00;53.40;;;;;;5067946;28;20082;-83
2022/08/01 05:12:48;;;;;;;0.17;0.10;;;28.00;52.20;;;;;;5087712;28;20052;-83
2022/08/01 05:15:14;;;;;;;0.00;0.00;;;28.10;50.70;;;;;;5090066;28;20039;-83
2022/08/01 05:17:41;;;;;;;6.30;1.77;;;28.10;49.80;;;;;;5098263;28;20031;-86
2022/08/01 05:20:08;;;;;;;0.50;0.50;;;28.00;51.00;;;;;;5093398;28;20028;-84
2022/08/01 05:22:34;;;;;;;0.47;0.38;;;27.90;51.40;;;;;;5083828;28;20020;-86
2022/08/01 05:25:00;;;;;;;0.20;0.20;;;27.90;50.90;;;;;;5091890;28;20035;-83
2022/08/01 05:27:26;;;;;;;0.10;0.10;;;28.20;50.70;;;;;;5071527;28;20032;-84
2022/08/01 05:29:52;;;;;;;0.00;0.00;;;28.30;50.80;;;;;;5114000;28;20015;-83
2022/08/01 05:32:18;;;;;;;0.00;0.00;;;28.60;51.00;;;;;;5089537;28;20051;-85
2022/08/01 05:34:45;;;;;;;0.20;0.17;;;28.60;49.90;;;;;;5076576;28;20425;-88
2022/08/01 05:37:11;;;;;;;0.90;0.60;;;28.40;50.80;;;;;;5073388;28;20028;-84
2022/08/01 05:39:37;;;;;;;0.00;0.00;;;28.20;51.00;;;;;;5090201;28;20035;-81
2022/08/01 05:42:03;;;;;;;0.13;0.13;;;28.50;51.50;;;;;;5071599;28;20032;-81
2022/08/01 05:44:29;;;;;;;0.05;0.05;;;28.30;50.40;;;;;;5088018;28;20124;-83
2022/08/01 05:46:55;;;;;;;0.03;0.03;;;28.20;51.70;;;;;;5091883;28;20500;-82
2022/08/01 05:49:21;;;;;;;0.45;0.35;;;28.50;51.40;;;;;;5079234;28;20032;-80
2022/08/01 05:51:47;;;;;;;0.00;0.00;;;28.50;50.70;;;;;;5088673;28;20028;-81
2022/08/01 05:54:13;;;;;;;0.30;0.30;;;28.60;49.20;;;;;;5082892;28;20040;-83
2022/08/01 05:56:39;;;;;;;0.00;0.00;;;28.50;51.10;;;;;;5091623;28;20062;-87
2022/08/01 05:59:05;;;;;;;0.28;0.28;;;28.20;51.30;;;;;;5073180;28;20044;-88
2022/08/01 06:01:31;;;;;;;0.45;0.32;;;28.00;53.00;;;;;;5090722;28;20047;-85
2022/08/01 06:03:57;;;;;;;0.00;0.00;;;28.20;53.20;;;;;;5078171;28;20024;-86
2022/08/01 06:06:24;;;;;;;2.22;0.65;;;28.40;52.00;;;;;;5092268;28;20028;-88
2022/08/01 06:08:50;;;;;;;3.65;0.52;;;28.60;51.50;;;;;;5074188;28;20024;-89
2022/08/01 06:11:16;;;;;;;0.00;0.00;;;28.40;51.30;;;;;;5071446;28;20024;-83
2022/08/01 06:13:42;;;;;;;0.22;0.22;;;28.30;50.60;;;;;;5082222;28;20050;-86
2022/08/01 06:16:08;;;;;;;0.10;0.10;;;28.40;49.30;;;;;;5078496;28;20456;-83
2022/08/01 06:18:34;;;;;;;0.55;0.55;;;28.40;49.20;;;;;;5091498;28;20118;-83
2022/08/01 06:21:00;;;;;;;0.22;0.20;;;28.30;50.10;;;;;;5091475;28;20160;-89
2022/08/01 06:23:26;;;;;;;0.00;0.00;;;28.20;50.00;;;;;;5077009;28;20162;-89
2022/08/01 06:25:54;;;;;;;0.00;0.00;;;28.40;50.40;;;;;;5090224;28;20412;-87
2022/08/01 06:28:20;;;;;;;0.85;0.55;;;28.60;50.60;;;;;;5084872;28;20388;-86
2022/08/01 06:30:46;;;;;;;0.10;0.10;;;28.90;51.20;;;;;;5082894;28;20028;-91
2022/08/01 06:33:13;;;;;;;0.00;0.00;;;29.10;51.00;;;;;;5069249;28;20021;-86
2022/08/01 06:35:39;;;;;;;2.95;0.65;;;29.20;50.40;;;;;;5075180;28;20048;-84
2022/08/01 06:38:05;;;;;;;0.00;0.00;;;28.50;50.20;;;;;;5061779;28;20032;-89
2022/08/01 06:40:31;;;;;;;0.00;0.00;;;28.60;51.00;;;;;;5085366;28;20102;-96
2022/08/01 06:42:57;;;;;;;0.00;0.00;;;28.80;50.00;;;;;;5086079;28;20025;-83
2022/08/01 06:45:25;;;;;;;1.85;1.35;;;28.90;49.20;;;;;;5079625;28;20024;-88
2022/08/01 06:47:51;;;;;;;0.00;0.00;;;28.70;49.60;;;;;;5083654;28;20162;-87
2022/08/01 06:50:20;;;;;;;0.00;0.00;;;28.80;49.70;;;;;;5083686;28;20028;-86
2022/08/01 06:52:47;;;;;;;0.10;0.10;;;28.60;50.50;;;;;;5092341;28;20433;-87
2022/08/01 06:55:29;;;;;;;1.88;1.63;;;28.80;51.10;;;;;;5101155;28;20024;-85
2022/08/01 06:57:55;;;;;;;0.00;0.00;;;28.90;50.90;;;;;;5071995;28;20035;-86
2022/08/01 07:00:25;;;;;;;0.10;0.10;;;29.00;49.50;;;;;;5078407;28;20036;-86
2022/08/01 07:02:56;;;;;;;0.35;0.20;;;28.90;48.70;;;;;;5111947;28;20012;-83
2022/08/01 07:05:22;;;;;;;0.00;0.00;;;28.80;49.40;;;;;;5116247;28;20072;-85
2022/08/01 07:07:49;;;;;;;0.10;0.10;;;29.00;48.70;;;;;;5092703;28;20047;-88
2022/08/01 07:10:16;;;;;;;1.58;0.57;;;29.40;48.70;;;;;;5081508;28;20016;-85
2022/08/01 07:12:42;;;;;;;3.65;1.08;;;29.20;48.30;;;;;;5085346;28;20119;-84
2022/08/01 07:15:11;;;;;;;1.17;0.40;;;28.90;49.60;;;;;;5093153;28;20523;-88
2022/08/01 07:17:39;;;;;;;0.40;0.40;;;28.80;50.30;;;;;;5086534;28;20024;-87
2022/08/01 07:20:10;;;;;;;2.90;1.80;;;29.00;50.60;;;;;;5083720;28;20033;-86
2022/08/01 07:22:37;;;;;;;0.22;0.22;;;29.10;49.90;;;;;;5079880;28;20023;-84
2022/08/01 07:25:10;;;;;;;0.10;0.10;;;28.90;49.80;;;;;;5112636;28;20378;-88
2022/08/01 07:27:37;;;;;;;0.00;0.00;;;29.00;50.40;;;;;;5107357;28;20016;-83
2022/08/01 07:33:25;;;;;;;0.00;0.00;;;29.00;50.50;;;;;;5094219;28;20022;-84
2022/08/01 07:35:51;;;;;;;0.32;0.32;;;29.30;49.60;;;;;;5074088;28;20070;-82
2022/08/01 07:38:18;;;;;;;2.63;0.43;;;29.30;48.80;;;;;;5090557;28;20027;-83
2022/08/01 07:40:46;;;;;;;0.00;0.00;;;29.40;49.20;;;;;;5093277;28;20037;-87
2022/08/01 07:43:13;;;;;;;0.00;0.00;;;29.40;49.10;;;;;;5099611;28;20395;-83
2022/08/01 07:45:41;;;;;;;0.00;0.00;;;29.50;49.20;;;;;;5080744;28;20055;-83
2022/08/01 07:48:08;;;;;;;0.65;0.63;;;29.70;49.30;;;;;;5079345;28;20491;-82
2022/08/01 07:50:34;;;;;;;0.00;0.00;;;29.80;48.70;;;;;;5084772;28;20110;-81
2022/08/01 07:53:02;;;;;;;0.00;0.00;;;29.90;48.50;;;;;;5056312;28;20088;-81
2022/08/01 07:55:28;;;;;;;0.00;0.00;;;29.90;48.30;;;;;;5065347;28;20063;-85
2022/08/01 07:57:55;;;;;;;0.00;0.00;;;30.10;47.50;;;;;;5081938;28;20055;-81
2022/08/01 08:00:28;;;;;;;0.20;0.10;;;30.20;47.50;;;;;;5073696;28;20036;-85
2022/08/01 08:02:58;;;;;;;0.38;0.38;;;30.20;47.80;;;;;;5059946;28;20024;-82
2022/08/01 08:05:27;;;;;;;1.17;0.43;;;29.90;46.90;;;;;;5080409;28;20117;-81
2022/08/01 08:08:13;;;;;;;0.00;0.00;;;29.50;47.20;;;;;;5091088;28;20185;-83
2022/08/01 08:10:43;;;;;;;0.08;0.08;;;29.70;46.80;;;;;;5067683;28;20060;-90
2022/08/01 08:13:14;;;;;;;0.10;0.10;;;29.80;47.20;;;;;;5074971;28;20119;-86
2022/08/01 08:15:41;;;;;;;0.00;0.00;;;30.00;46.80;;;;;;5100127;28;20638;-87
2022/08/01 08:18:11;;;;;;;0.00;0.00;;;30.30;44.70;;;;;;5087281;28;20096;-81
2022/08/01 08:20:40;;;;;;;0.00;0.00;;;30.70;44.60;;;;;;5089251;28;20020;-78
2022/08/01 08:25:58;;;;;;;1.75;1.65;;;30.40;45.00;;;;;;5086115;28;20039;-83
2022/08/01 08:28:25;;;;;;;0.25;0.13;;;30.30;44.90;;;;;;5067876;28;20028;-82
2022/08/01 08:30:52;;;;;;;0.00;0.00;;;29.90;45.30;;;;;;5082298;28;20051;-86
2022/08/01 08:33:19;;;;;;;0.03;0.00;;;30.30;45.70;;;;;;5064421;28;20096;-88
2022/08/01 08:35:50;;;;;;;0.10;0.03;;;30.70;44.80;;;;;;5060832;28;20028;-88
2022/08/01 08:38:17;;;;;;;0.00;0.00;;;30.70;45.60;;;;;;5085438;28;20048;-87
2022/08/01 08:40:44;;;;;;;0.00;0.00;;;30.80;45.40;;;;;;5085177;28;20064;-85
2022/08/01 08:43:11;;;;;;;0.00;0.00;;;30.90;44.90;;;;;;5070526;28;20103;-85
2022/08/01 08:45:38;;;;;;;0.43;0.25;;;30.20;45.30;;;;;;5096931;28;20504;-83
2022/08/01 08:48:08;;;;;;;0.10;0.10;;;30.20;45.80;;;;;;5113274;28;20075;-89
2022/08/01 08:50:37;;;;;;;0.10;0.10;;;30.50;45.30;;;;;;5064381;28;20034;-87
2022/08/01 08:53:13;;;;;;;0.17;0.17;;;30.30;45.50;;;;;;5092531;28;20016;-86
2022/08/01 08:55:44;;;;;;;0.00;0.00;;;30.80;44.90;;;;;;5080189;28;20040;-85
2022/08/01 08:58:17;;;;;;;0.00;0.00;;;31.00;45.50;;;;;;5081059;28;20055;-85
2022/08/01 09:00:45;;;;;;;0.17;0.15;;;31.30;45.20;;;;;;5073968;28;20120;-84
2022/08/01 09:03:12;;;;;;;0.00;0.00;;;31.30;43.90;;;;;;5076575;28;20013;-81
2022/08/01 09:05:38;;;;;;;0.00;0.00;;;31.40;44.20;;;;;;5091040;28;20080;-83
2022/08/01 09:08:09;;;;;;;1.35;1.15;;;31.60;43.50;;;;;;5075454;28;20041;-85
2022/08/01 09:10:43;;;;;;;0.00;0.00;;;31.20;43.50;;;;;;5054701;28;20096;-85
2022/08/01 09:13:14;;;;;;;1.20;0.88;;;31.00;44.10;;;;;;5062796;28;20045;-84
2022/08/01 09:15:58;;;;;;;0.00;0.00;;;30.80;44.80;;;;;;5069879;28;20105;-85
2022/08/01 09:18:44;;;;;;;0.10;0.10;;;30.80;45.10;;;;;;5067138;28;20017;-85
2022/08/01 09:21:24;;;;;;;0.00;0.00;;;31.10;44.80;;;;;;5059219;28;20033;-86
2022/08/01 09:23:56;;;;;;;0.80;0.55;;;31.30;43.60;;;;;;5060306;28;20036;-84
2022/08/01 09:26:36;;;;;;;3.60;3.33;;;31.60;43.30;;;;;;5060537;28;20384;-85
2022/08/01 09:29:05;;;;;;;0.00;0.00;;;31.60;43.10;;;;;;5046037;28;20027;-86
2022/08/01 09:31:41;;;;;;;0.25;0.25;;;31.30;44.30;;;;;;5056744;28;20039;-84
2022/08/01 09:34:13;;;;;;;0.32;0.32;;;31.30;44.50;;;;;;5084068;28;20008;-85
2022/08/01 09:36:51;;;;;;;0.00;0.00;;;31.00;43.90;;;;;;5048388;28;20025;-84
2022/08/01 09:39:24;;;;;;;0.00;0.00;;;31.10;43.80;;;;;;5061530;28;20024;-85
2022/08/01 09:41:56;;;;;;;0.00;0.00;;;31.30;43.70;;;;;;5067025;28;20039;-84
2022/08/01 09:44:45;;;;;;;0.38;0.35;;;31.40;44.10;;;;;;5048563;28;20028;-85
2022/08/01 09:47:14;;;;;;;3.53;1.65;;;31.00;43.20;;;;;;5072959;28;20039;-85
2022/08/01 09:49:41;;;;;;;0.10;0.10;;;30.50;44.40;;;;;;5065782;28;20024;-85
2022/08/01 09:52:19;;;;;;;0.05;0.05;;;30.40;43.80;;;;;;5078050;28;20043;-83
2022/08/01 09:54:59;;;;;;;3.20;0.80;;;30.30;44.10;;;;;;5074235;28;20168;-84
2022/08/01 09:57:33;;;;;;;0.90;0.90;;;30.20;44.10;;;;;;5076763;28;20035;-84
2022/08/01 10:00:19;;;;;;;0.00;0.00;;;30.30;44.10;;;;;;5048824;28;20036;-83
2022/08/01 10:02:46;;;;;;;0.10;0.10;;;30.40;43.80;;;;;;5066888;28;20040;-83
2022/08/01 10:05:15;;;;;;;0.00;0.00;;;30.60;43.70;;;;;;5059845;28;20103;-87
2022/08/01 10:08:04;;;;;;;0.00;0.00;;;30.70;43.70;;;;;;5065496;28;20026;-88
2022/08/01 10:10:33;;;;;;;0.00;0.00;;;30.60;43.50;;;;;;5056100;28;20151;-87
2022/08/01 10:13:01;;;;;;;0.00;0.00;;;30.70;44.50;;;;;;5052800;28;20151;-88
2022/08/01 10:15:29;;;;;;;0.20;0.20;;;31.00;44.90;;;;;;5049358;28;20063;-89
2022/08/01 10:18:07;;;;;;;0.00;0.00;;;30.60;44.50;;;;;;5060211;28;20032;-86
2022/08/01 10:20:36;;;;;;;0.30;0.30;;;30.50;45.00;;;;;;5076249;28;20055;-88
2022/08/01 10:23:08;;;;;;;0.00;0.00;;;30.30;45.00;;;;;;5052627;28;20534;-88
2022/08/01 10:25:49;;;;;;;0.00;0.00;;;30.40;45.30;;;;;;5073915;28;20016;-84
2022/08/01 10:28:21;;;;;;;0.00;0.00;;;30.60;44.80;;;;;;5068923;28;20108;-88
2022/08/01 10:30:48;;;;;;;0.00;0.00;;;30.70;44.60;;;;;;5053267;28;20478;-87
2022/08/01 10:33:17;;;;;;;0.15;0.10;;;30.90;44.60;;;;;;5067927;28;20046;-87
2022/08/01 10:35:46;;;;;;;0.00;0.00;;;30.70;43.80;;;;;;5074130;28;20024;-86
2022/08/01 10:38:14;;;;;;;0.00;0.00;;;30.50;44.40;;;;;;5051422;28;20044;-90
2022/08/01 10:40:43;;;;;;;0.10;0.10;;;30.60;44.90;;;;;;5086100;28;20046;-86
2022/08/01 10:43:15;;;;;;;0.00;0.00;;;30.40;45.10;;;;;;5050657;28;20025;-84
2022/08/01 10:45:43;;;;;;;0.32;0.32;;;30.40;44.90;;;;;;5064275;28;20077;-90
2022/08/01 10:48:22;;;;;;;0.52;0.45;;;30.60;44.50;;;;;;5080067;28;20037;-83
2022/08/01 10:50:58;;;;;;;0.00;0.00;;;30.70;44.50;;;;;;5067233;28;20071;-89
2022/08/01 10:53:26;;;;;;;0.73;0.73;;;30.30;44.60;;;;;;5082983;28;20036;-87
2022/08/01 10:56:01;;;;;;;1.75;1.65;;;30.30;45.00;;;;;;5070488;28;20028;-88
2022/08/01 10:58:37;;;;;;;0.20;0.20;;;30.40;44.30;;;;;;5061677;28;20045;-86
2022/08/01 11:01:26;;;;;;;0.00;0.00;;;30.30;44.00;;;;;;5090597;28;20056;-90
2022/08/01 11:04:00;;;;;;;1.95;0.73;;;30.00;44.60;;;;;;5088658;28;20111;-85
2022/08/01 11:06:35;;;;;;;0.52;0.52;;;29.80;45.10;;;;;;5066895;28;20103;-81
2022/08/01 11:09:16;;;;;;;0.20;0.20;;;29.80;45.00;;;;;;5075676;28;20016;-84
2022/08/01 11:12:16;;;;;;;6.57;4.72;;;30.10;45.20;;;;;;5074657;28;20020;-85
2022/08/01 11:15:01;;;;;;;5.70;1.55;;;30.10;44.30;;;;;;5049916;28;20457;-87
2022/08/01 11:17:47;;;;;;;0.00;0.00;;;29.90;44.60;;;;;;5071289;28;20111;-90
2022/08/01 11:20:22;;;;;;;0.00;0.00;;;29.90;44.60;;;;;;5070563;28;20123;-83
2022/08/01 11:23:00;;;;;;;0.00;0.00;;;30.10;44.10;;;;;;5071810;28;20036;-84
2022/08/01 11:25:48;;;;;;;0.00;0.00;;;30.20;44.30;;;;;;5073306;28;20024;-82
2022/08/01 11:28:15;;;;;;;0.00;0.00;;;30.50;43.40;;;;;;5068369;28;20029;-83
2022/08/01 11:30:43;;;;;;;0.00;0.00;;;30.80;43.10;;;;;;5068582;28;20123;-84
2022/08/01 11:33:10;;;;;;;0.00;0.00;;;30.80;43.00;;;;;;5065224;28;20033;-85
2022/08/01 11:35:37;;;;;;;0.00;0.00;;;30.40;43.30;;;;;;5067226;28;20075;-83
2022/08/01 11:38:23;;;;;;;0.00;0.00;;;30.60;43.40;;;;;;5061199;28;20025;-84
2022/08/01 11:41:17;;;;;;;0.00;0.00;;;30.80;43.00;;;;;;5072495;28;20056;-84
2022/08/01 11:44:07;;;;;;;0.17;0.17;;;30.70;43.50;;;;;;5062003;28;20067;-85
2022/08/01 11:46:52;;;;;;;0.00;0.00;;;30.80;43.30;;;;;;5071721;28;20024;-85
2022/08/01 11:49:54;;;;;;;0.00;0.00;;;30.80;43.00;;;;;;5086955;28;20091;-84
2022/08/01 11:52:29;;;;;;;0.05;0.05;;;30.80;43.90;;;;;;5048219;28;20040;-94
2022/08/01 11:55:04;;;;;;;0.00;0.00;;;30.10;44.40;;;;;;5088599;28;20027;-84
2022/08/01 11:57:34;;;;;;;0.00;0.00;;;30.00;44.00;;;;;;5057725;28;20033;-92
2022/08/01 12:00:16;;;;;;;0.00;0.00;;;30.20;43.40;;;;;;5074854;28;20071;-86
2022/08/01 12:02:48;;;;;;;0.00;0.00;;;30.30;42.90;;;;;;5097790;28;20031;-88
2022/08/01 12:05:20;;;;;;;0.00;0.00;;;30.40;42.90;;;;;;5096089;28;20039;-89
2022/08/01 12:07:52;;;;;;;0.00;0.00;;;30.40;42.70;;;;;;5062570;28;20107;-87
2022/08/01 12:10:20;;;;;;;0.10;0.10;;;30.50;43.00;;;;;;5066157;28;20033;-82
2022/08/01 12:12:59;;;;;;;0.00;0.00;;;30.40;42.70;;;;;;5066972;28;20036;-83
2022/08/01 12:15:33;;;;;;;0.00;0.00;;;30.30;42.50;;;;;;5068238;28;20067;-83
2022/08/01 12:18:02;;;;;;;6.40;6.03;;;30.30;42.70;;;;;;5091614;28;20013;-82
2022/08/01 12:20:36;;;;;;;0.82;0.82;;;30.30;43.30;;;;;;5073232;28;20032;-83
2022/08/01 12:23:05;;;;;;;0.00;0.00;;;30.30;43.30;;;;;;5088004;28;20408;-84
2022/08/01 12:25:31;;;;;;;0.00;0.00;;;30.30;43.10;;;;;;5084695;28;20080;-83
2022/08/01 12:28:06;;;;;;;0.00;0.00;;;30.30;43.10;;;;;;5081920;28;20048;-84
2022/08/01 12:30:34;;;;;;;0.00;0.00;;;30.30;43.40;;;;;;5082642;28;20033;-84
2022/08/01 12:33:05;;;;;;;2.58;2.38;;;30.20;43.60;;;;;;5066167;28;20032;-84
2022/08/01 12:35:32;;;;;;;0.00;0.00;;;30.30;43.20;;;;;;5070876;28;20056;-85
2022/08/01 12:38:07;;;;;;;0.00;0.00;;;30.30;43.30;;;;;;5072158;28;20497;-86
2022/08/01 12:40:36;;;;;;;0.00;0.00;;;30.10;43.80;;;;;;5065834;28;20028;-84
2022/08/01 12:43:04;;;;;;;0.00;0.00;;;29.90;44.50;;;;;;5070013;28;20032;-81
2022/08/01 12:45:39;;;;;;;0.00;0.00;;;30.00;44.80;;;;;;5078252;28;20437;-79
2022/08/01 12:48:14;;;;;;;0.47;0.47;;;29.90;44.40;;;;;;5071425;28;20110;-80
2022/08/01 12:50:45;;;;;;;0.00;0.00;;;29.70;44.80;;;;;;5066658;28;20492;-83
2022/08/01 12:53:14;;;;;;;22.02;5.18;;;29.50;45.20;;;;;;5074993;28;20036;-83
2022/08/01 12:55:47;;;;;;;0.00;0.00;;;29.50;45.40;;;;;;5077846;28;20025;-85
2022/08/01 12:58:16;;;;;;;0.00;0.00;;;29.60;46.00;;;;;;5082683;28;20043;-84
2022/08/01 13:00:45;;;;;;;2.08;1.98;;;29.40;45.60;;;;;;5097914;28;20046;-84
2022/08/01 13:03:16;;;;;;;0.00;0.00;;;29.40;44.80;;;;;;5081032;28;20035;-83
2022/08/01 13:05:56;;;;;;;0.38;0.38;;;29.10;45.30;;;;;;5080285;28;20031;-82
2022/08/01 13:08:31;;;;;;;0.28;0.28;;;28.90;47.40;;;;;;5098566;28;20016;-84
2022/08/01 13:11:15;;;;;;;0.00;0.00;;;28.60;49.20;;;;;;5098475;28;20452;-83